Time;durP1;ratioP1;P1;durP2;ratioP2;P2;SDS_P1;SDS_P2;PMS_P1;PMS_P2;Temp;Humidity;BMP_temperature;BMP_pressure;BME280_temperature;BME280_humidity;BME280_pressure;Samples;Min_cycle;Max_cycle;Signal;HPM_P1;HPM_P2
2023/07/07 00:01:09;;;;;;;2.58;1.58;;;;;;;17.48;60.95;100697.78;5006776;28;20049;-78
2023/07/07 00:03:36;;;;;;;3.38;1.70;;;;;;;17.35;61.70;100672.84;4994298;28;20125;-79
2023/07/07 00:06:03;;;;;;;2.63;1.50;;;;;;;17.39;61.78;100691.28;5003479;28;20547;-77
2023/07/07 00:08:31;;;;;;;3.95;1.55;;;;;;;17.29;61.98;100684.88;4995293;28;20045;-78
2023/07/07 00:10:58;;;;;;;2.10;1.63;;;;;;;17.09;62.67;100659.50;4994398;28;20049;-76
2023/07/07 00:13:26;;;;;;;2.67;1.70;;;;;;;17.21;63.50;100691.72;4990173;28;20085;-77
2023/07/07 00:16:00;;;;;;;2.45;1.30;;;;;;;17.23;64.02;100687.97;5002684;28;20570;-80
2023/07/07 00:18:27;;;;;;;3.42;1.60;;;;;;;17.25;63.75;100687.88;4991239;28;20054;-79
2023/07/07 00:20:59;;;;;;;2.42;1.73;;;;;;;17.11;64.40;100673.63;4990398;28;20069;-79
2023/07/07 00:23:29;;;;;;;2.55;1.67;;;;;;;17.16;64.46;100695.56;4992946;28;20054;-76
2023/07/07 00:26:03;;;;;;;2.58;1.45;;;;;;;17.08;64.67;100689.03;4984051;28;20076;-78
2023/07/07 00:28:32;;;;;;;2.85;1.15;;;;;;;17.02;64.93;100695.66;5004589;28;20104;-81
2023/07/07 00:30:59;;;;;;;2.65;1.50;;;;;;;16.93;65.22;100685.59;4991577;28;20038;-79
2023/07/07 00:33:27;;;;;;;5.95;1.50;;;;;;;16.88;65.73;100695.75;4986684;28;20049;-78
2023/07/07 00:35:54;;;;;;;1.55;1.27;;;;;;;16.65;66.27;100673.25;4982226;28;21717;-78
2023/07/07 00:38:21;;;;;;;3.80;1.30;;;;;;;16.52;66.09;100653.63;4992341;28;20510;-77
2023/07/07 00:40:51;;;;;;;3.03;1.40;;;;;;;16.74;66.39;100702.03;5004260;28;20046;-77
2023/07/07 00:43:20;;;;;;;3.30;1.73;;;;;;;16.61;66.96;100679.75;5004108;28;20550;-79
2023/07/07 00:45:46;;;;;;;5.00;1.83;;;;;;;16.72;67.01;100703.09;4984600;28;20092;-79
2023/07/07 00:48:18;;;;;;;2.97;1.27;;;;;;;16.55;67.09;100676.59;4997170;28;20483;-79
2023/07/07 00:51:06;;;;;;;1.92;1.38;;;;;;;16.42;67.98;100669.41;5025459;28;20038;-78
2023/07/07 00:53:33;;;;;;;2.67;1.30;;;;;;;16.60;68.65;100703.91;5023574;28;20116;-79
2023/07/07 00:56:05;;;;;;;7.80;1.85;;;;;;;16.58;69.10;100711.16;4998663;28;20057;-78
2023/07/07 00:58:34;;;;;;;3.65;1.38;;;;;;;16.47;69.28;100683.34;5009479;28;20061;-76
2023/07/07 01:01:05;;;;;;;2.15;1.67;;;;;;;16.57;68.59;100704.09;4998794;28;20044;-75
2023/07/07 01:03:40;;;;;;;2.00;1.40;;;;;;;16.51;68.29;100710.72;4996787;28;20319;-77
2023/07/07 01:06:11;;;;;;;3.38;1.50;;;;;;;16.34;68.79;100697.63;4998953;28;20046;-78
2023/07/07 01:08:40;;;;;;;2.28;1.38;;;;;;;16.33;69.31;100698.59;5002383;28;20066;-78
2023/07/07 01:11:08;;;;;;;2.15;1.30;;;;;;;16.33;69.76;100715.47;4994011;28;20038;-78
2023/07/07 01:13:36;;;;;;;3.47;1.55;;;;;;;16.30;69.70;100713.00;4998471;28;20927;-77
2023/07/07 01:16:15;;;;;;;4.22;1.55;;;;;;;16.17;69.78;100700.53;4984943;28;20042;-80
2023/07/07 01:19:17;;;;;;;3.85;1.45;;;;;;;16.24;69.87;100717.88;4994757;28;20038;-78
2023/07/07 01:22:13;;;;;;;2.50;1.50;;;;;;;16.24;70.07;100723.22;5007001;28;20038;-78
2023/07/07 01:25:36;;;;;;;3.65;1.60;;;;;;;16.20;70.29;100719.06;5008037;28;20041;-78
2023/07/07 01:28:40;;;;;;;3.42;1.70;;;;;;;16.15;70.54;100724.69;4955849;28;20069;-78
2023/07/07 01:31:32;;;;;;;3.25;1.70;;;;;;;15.97;70.90;100683.13;5012325;28;20034;-80
2023/07/07 01:34:03;;;;;;;2.58;1.50;;;;;;;16.10;70.76;100718.78;4995110;28;20046;-79
2023/07/07 01:36:29;;;;;;;3.58;1.33;;;;;;;16.05;70.65;100707.56;4983194;28;20069;-79
2023/07/07 01:38:56;;;;;;;2.17;1.50;;;;;;;15.84;70.27;100682.22;4990715;28;21250;-79
2023/07/07 01:41:41;;;;;;;2.55;1.45;;;;;;;16.04;70.66;100722.72;4992065;28;20652;-78
2023/07/07 01:44:13;;;;;;;3.03;1.60;;;;;;;16.01;71.02;100719.38;4990080;28;20046;-78
2023/07/07 01:47:00;;;;;;;4.50;1.52;;;;;;;15.74;71.07;100672.09;4992986;28;20625;-77
2023/07/07 01:49:32;;;;;;;3.15;1.70;;;;;;;16.05;70.92;100710.22;5006562;28;20088;-80
2023/07/07 01:52:23;;;;;;;3.08;1.40;;;;;;;16.07;71.59;100726.97;4983456;28;20049;-79
2023/07/07 01:54:58;;;;;;;5.10;1.65;;;;;;;16.02;72.33;100723.78;5002099;28;20042;-80
2023/07/07 01:57:27;;;;;;;4.13;1.50;;;;;;;16.06;72.54;100722.59;5003983;28;20054;-80
2023/07/07 01:59:55;;;;;;;2.58;1.50;;;;;;;16.10;72.07;100721.44;4989757;28;20449;-79
2023/07/07 02:02:23;;;;;;;1.90;1.70;;;;;;;15.97;72.63;100720.53;4989710;28;20068;-78
2023/07/07 02:04:50;;;;;;;2.65;1.73;;;;;;;15.81;73.53;100712.63;4984777;28;21274;-79
2023/07/07 02:07:17;;;;;;;1.70;1.30;;;;;;;15.84;74.16;100719.59;5001500;28;20583;-78
2023/07/07 02:09:43;;;;;;;6.55;1.80;;;;;;;15.79;74.00;100718.06;4989734;28;20136;-79
2023/07/07 02:12:10;;;;;;;3.88;1.45;;;;;;;15.81;73.92;100725.13;4992028;28;20069;-77
2023/07/07 02:14:37;;;;;;;4.20;1.42;;;;;;;15.80;74.61;100724.28;4985206;28;20127;-78
2023/07/07 02:17:03;;;;;;;5.45;1.70;;;;;;;15.72;74.55;100716.75;4984484;28;20702;-77
2023/07/07 02:19:30;;;;;;;3.58;1.70;;;;;;;15.63;74.77;100722.66;4991427;28;20050;-76
2023/07/07 02:25:12;;;;;;;4.30;1.65;;;;;;;15.54;75.64;100712.53;5003597;28;20046;-79
2023/07/07 02:27:38;;;;;;;3.93;1.90;;;;;;;15.56;75.01;100718.69;5004141;28;20053;-77
2023/07/07 02:30:06;;;;;;;4.72;1.52;;;;;;;15.56;75.07;100720.47;4988270;28;20052;-78
2023/07/07 02:32:32;;;;;;;3.13;1.60;;;;;;;15.49;75.54;100711.97;4988334;28;20430;-78
2023/07/07 02:35:01;;;;;;;4.03;1.77;;;;;;;15.21;75.53;100675.47;4984847;28;20060;-79
2023/07/07 02:37:28;;;;;;;2.22;1.42;;;;;;;15.49;75.60;100727.97;5001634;28;20056;-77
2023/07/07 02:39:55;;;;;;;3.80;1.50;;;;;;;15.46;75.54;100717.47;4983433;28;20056;-77
2023/07/07 02:42:22;;;;;;;2.00;1.60;;;;;;;15.45;75.12;100732.63;4993611;28;20165;-79
2023/07/07 02:44:48;;;;;;;2.03;1.50;;;;;;;15.28;74.70;100711.47;5002827;28;20145;-77
2023/07/07 02:47:15;;;;;;;2.15;1.48;;;;;;;15.38;76.74;100738.47;4998464;28;20499;-78
2023/07/07 02:49:42;;;;;;;2.20;1.42;;;;;;;15.39;75.75;100734.84;4986854;28;20141;-78
2023/07/07 02:52:08;;;;;;;2.28;1.48;;;;;;;15.20;76.61;100707.56;4989313;28;20054;-77
2023/07/07 02:54:35;;;;;;;2.30;1.38;;;;;;;15.32;77.09;100736.16;4984780;28;20567;-77
2023/07/07 02:57:02;;;;;;;2.17;1.15;;;;;;;15.28;76.69;100731.94;4983329;28;20507;-78
2023/07/07 02:59:29;;;;;;;3.17;1.42;;;;;;;15.25;77.80;100745.50;5006554;28;20050;-76
2023/07/07 03:01:56;;;;;;;3.22;1.50;;;;;;;15.10;77.69;100707.28;4991390;28;20042;-78
2023/07/07 03:04:26;;;;;;;3.58;1.67;;;;;;;15.24;76.53;100730.44;5011379;28;20457;-78
2023/07/07 03:06:53;;;;;;;4.25;1.60;;;;;;;15.17;76.81;100718.41;4985916;28;20156;-79
2023/07/07 03:09:20;;;;;;;2.70;1.67;;;;;;;15.35;77.16;100743.97;4996737;28;20136;-78
2023/07/07 03:11:47;;;;;;;4.97;1.90;;;;;;;15.17;77.17;100724.59;4994836;28;20049;-78
2023/07/07 03:14:17;;;;;;;2.47;1.30;;;;;;;15.13;77.67;100733.75;4990709;28;20076;-79
2023/07/07 03:16:47;;;;;;;1.90;1.52;;;;;;;14.93;78.88;100710.97;4981727;28;20651;-80
2023/07/07 03:19:16;;;;;;;2.03;1.52;;;;;;;14.90;79.57;100700.47;5007064;28;20092;-80
2023/07/07 03:21:43;;;;;;;2.63;1.73;;;;;;;15.00;79.19;100717.63;4984776;28;20049;-80
2023/07/07 03:24:14;;;;;;;2.65;1.67;;;;;;;14.93;78.75;100721.63;4991979;28;20103;-80
2023/07/07 03:26:43;;;;;;;2.75;1.70;;;;;;;15.10;79.52;100757.97;4983726;28;20057;-80
2023/07/07 03:29:10;;;;;;;3.08;1.88;;;;;;;15.07;79.31;100756.31;5005749;28;20045;-80
2023/07/07 03:31:37;;;;;;;4.20;1.70;;;;;;;14.82;79.57;100732.03;4991242;28;20128;-81
2023/07/07 03:34:05;;;;;;;3.65;1.60;;;;;;;14.88;80.66;100742.38;4990468;28;20050;-78
2023/07/07 03:36:35;;;;;;;3.08;1.70;;;;;;;14.81;81.58;100746.31;4990953;28;20059;-79
2023/07/07 03:39:03;;;;;;;3.13;1.58;;;;;;;14.79;81.81;100742.06;4995588;28;20065;-78
2023/07/07 03:41:30;;;;;;;2.88;1.58;;;;;;;14.68;81.47;100718.69;5001542;28;20038;-79
2023/07/07 03:43:58;;;;;;;3.05;1.67;;;;;;;14.78;81.82;100745.66;4995183;28;20049;-78
2023/07/07 03:46:27;;;;;;;3.00;1.73;;;;;;;14.64;82.13;100710.00;4988185;28;20495;-81
2023/07/07 03:48:55;;;;;;;4.43;1.60;;;;;;;14.98;81.61;100766.66;5008979;28;20084;-79
2023/07/07 03:51:24;;;;;;;2.17;1.67;;;;;;;14.94;82.55;100768.69;5008425;28;20050;-77
2023/07/07 03:53:51;;;;;;;10.10;1.90;;;;;;;14.72;82.58;100737.06;4993697;28;20049;-79
2023/07/07 03:56:19;;;;;;;5.15;2.10;;;;;;;14.85;83.68;100765.66;4986828;28;20046;-79
2023/07/07 03:58:52;;;;;;;3.08;1.77;;;;;;;14.72;83.32;100742.41;4992907;28;20128;-79
2023/07/07 04:01:21;;;;;;;3.28;1.67;;;;;;;14.81;83.09;100759.66;4989194;28;20096;-79
2023/07/07 04:03:48;;;;;;;5.30;1.85;;;;;;;14.72;83.66;100736.22;4987112;28;20042;-78
2023/07/07 04:06:17;;;;;;;2.92;1.98;;;;;;;14.54;83.28;100698.16;4984335;28;20050;-79
2023/07/07 04:08:43;;;;;;;3.55;2.00;;;;;;;14.88;83.06;100752.16;4986691;28;20580;-77
2023/07/07 04:11:14;;;;;;;2.60;1.73;;;;;;;14.92;83.77;100765.25;4984673;28;20124;-78
2023/07/07 04:13:42;;;;;;;3.90;1.67;;;;;;;14.84;84.39;100746.16;4991979;28;20047;-79
2023/07/07 04:16:21;;;;;;;2.35;1.80;;;;;;;14.85;83.18;100744.34;4987151;28;20049;-78
2023/07/07 04:18:50;;;;;;;3.67;1.77;;;;;;;14.86;82.58;100762.91;4987669;28;20136;-79
2023/07/07 04:21:20;;;;;;;2.20;1.80;;;;;;;14.89;83.02;100778.75;4987584;28;20053;-78
2023/07/07 04:23:50;;;;;;;3.20;1.63;;;;;;;14.88;83.47;100779.69;4990057;28;20050;-79
2023/07/07 04:26:19;;;;;;;2.63;1.70;;;;;;;14.91;84.82;100779.53;4999983;28;20222;-79
2023/07/07 04:28:46;;;;;;;3.10;2.05;;;;;;;14.95;84.04;100773.03;4991237;28;20050;-79
2023/07/07 04:31:13;;;;;;;3.78;1.77;;;;;;;14.97;83.29;100760.47;4989821;28;20068;-78
2023/07/07 04:33:40;;;;;;;4.00;1.90;;;;;;;15.09;82.60;100781.09;4993906;28;20042;-80
2023/07/07 04:36:10;;;;;;;4.88;1.60;;;;;;;15.07;81.96;100780.31;4985444;28;20058;-80
2023/07/07 04:38:37;;;;;;;4.30;1.85;;;;;;;15.04;81.93;100777.84;5002310;28;20038;-79
2023/07/07 04:41:10;;;;;;;3.67;2.28;;;;;;;14.78;82.17;100738.53;4992880;28;20069;-79
2023/07/07 04:43:39;;;;;;;4.18;2.10;;;;;;;14.94;82.38;100766.00;4989045;28;20499;-78
2023/07/07 04:46:08;;;;;;;4.90;2.55;;;;;;;15.06;82.07;100781.28;5004030;28;20043;-77
2023/07/07 04:48:35;;;;;;;3.58;1.80;;;;;;;15.14;80.80;100785.28;4984322;28;20069;-79
2023/07/07 04:51:06;;;;;;;4.72;2.13;;;;;;;15.08;81.28;100781.19;4988075;28;20042;-77
2023/07/07 04:53:33;;;;;;;3.45;2.08;;;;;;;15.18;81.28;100795.69;4991050;28;20137;-77
2023/07/07 04:56:02;;;;;;;4.75;2.05;;;;;;;15.21;81.37;100787.50;5003619;28;20046;-78
2023/07/07 04:58:29;;;;;;;3.35;2.10;;;;;;;15.20;82.75;100779.59;4982370;28;20050;-78
2023/07/07 05:01:08;;;;;;;3.60;2.05;;;;;;;15.18;83.14;100777.00;5005749;28;20176;-78
2023/07/07 05:03:37;;;;;;;3.78;2.05;;;;;;;15.36;82.85;100785.72;5008353;28;20053;-78
2023/07/07 05:06:04;;;;;;;2.88;1.80;;;;;;;15.47;82.10;100796.59;4988835;28;20558;-78
2023/07/07 05:08:36;;;;;;;6.63;2.00;;;;;;;15.27;81.88;100749.75;5005072;28;20138;-77
2023/07/07 05:11:03;;;;;;;3.55;1.92;;;;;;;15.56;81.20;100785.41;4994167;28;20100;-78
2023/07/07 05:13:31;;;;;;;4.38;2.30;;;;;;;15.65;80.80;100802.66;4990895;28;20046;-77
2023/07/07 05:16:03;;;;;;;2.72;1.85;;;;;;;15.70;81.45;100806.78;5006923;28;20185;-79
2023/07/07 05:18:30;;;;;;;3.35;1.70;;;;;;;15.76;81.33;100808.19;5004441;28;20130;-78
2023/07/07 05:20:57;;;;;;;2.20;1.60;;;;;;;15.81;80.15;100810.56;5003530;28;20135;-79
2023/07/07 05:23:26;;;;;;;4.57;1.80;;;;;;;15.90;79.17;100815.38;4987870;28;20064;-78
2023/07/07 05:25:53;;;;;;;2.65;1.83;;;;;;;16.02;79.19;100814.59;4983790;28;20505;-79
2023/07/07 05:28:20;;;;;;;4.63;1.95;;;;;;;16.00;75.48;100785.31;4997506;28;20049;-78
2023/07/07 05:30:47;;;;;;;3.15;1.95;;;;;;;16.07;74.16;100801.78;4990669;28;20112;-80
2023/07/07 05:33:14;;;;;;;2.97;1.92;;;;;;;16.13;73.78;100799.59;4986876;28;20130;-76
2023/07/07 05:35:52;;;;;;;4.47;1.58;;;;;;;16.36;74.62;100816.84;4985372;28;20042;-77
2023/07/07 05:38:22;;;;;;;3.58;1.88;;;;;;;16.41;75.94;100817.38;4979771;28;20064;-79
2023/07/07 05:40:49;;;;;;;4.30;2.13;;;;;;;16.44;75.26;100819.88;4990716;28;20109;-77
2023/07/07 05:43:17;;;;;;;3.25;1.73;;;;;;;16.41;75.74;100797.81;5012288;28;20480;-76
2023/07/07 05:45:44;;;;;;;2.60;1.50;;;;;;;16.61;76.53;100817.91;5013055;28;20581;-77
2023/07/07 05:48:14;;;;;;;4.82;1.90;;;;;;;16.73;76.25;100827.84;4982683;28;20081;-79
2023/07/07 05:50:43;;;;;;;1.83;1.58;;;;;;;16.55;73.47;100780.88;4990954;28;20096;-78
2023/07/07 05:53:10;;;;;;;2.25;1.70;;;;;;;16.69;69.59;100775.50;5003024;28;20073;-78
2023/07/07 05:55:37;;;;;;;4.07;1.77;;;;;;;17.09;66.93;100835.25;4987332;28;20141;-77
2023/07/07 05:58:05;;;;;;;3.47;2.08;;;;;;;17.12;66.59;100803.78;4981790;28;20055;-78
2023/07/07 06:00:34;;;;;;;2.28;1.83;;;;;;;17.31;65.68;100822.16;4994196;28;20046;-77
2023/07/07 06:03:00;;;;;;;3.65;1.75;;;;;;;17.30;65.02;100801.69;4986661;28;20515;-77
2023/07/07 06:05:27;;;;;;;4.50;1.50;;;;;;;17.51;64.71;100823.44;5005243;28;20089;-78
2023/07/07 06:07:54;;;;;;;2.92;1.80;;;;;;;17.58;63.06;100805.13;4995807;28;20049;-77
2023/07/07 06:10:24;;;;;;;3.15;1.80;;;;;;;17.78;63.18;100820.72;4986239;28;20058;-77
2023/07/07 06:12:52;;;;;;;6.15;2.22;;;;;;;17.94;62.57;100807.94;4992036;28;20422;-76
2023/07/07 06:15:19;;;;;;;4.25;2.05;;;;;;;18.23;62.28;100804.03;4981529;28;20058;-79
2023/07/07 06:17:45;;;;;;;3.40;2.05;;;;;;;18.55;61.59;100811.56;4978708;28;20053;-78
2023/07/07 06:20:14;;;;;;;5.65;1.70;;;;;;;18.76;60.20;100806.44;4984283;28;20077;-77
2023/07/07 06:22:40;;;;;;;3.33;1.67;;;;;;;19.10;57.17;100810.13;4983930;28;20045;-78
2023/07/07 06:25:08;;;;;;;2.97;1.63;;;;;;;19.44;56.07;100789.59;4994504;28;20045;-77
2023/07/07 06:27:35;;;;;;;2.67;1.65;;;;;;;20.04;54.85;100801.91;4979364;28;20050;-76
2023/07/07 06:30:01;;;;;;;4.15;1.52;;;;;;;20.67;52.96;100799.38;5000673;28;20042;-79
2023/07/07 06:32:28;;;;;;;5.43;1.52;;;;;;;21.00;49.98;100781.41;4986961;28;20048;-76
2023/07/07 06:34:55;;;;;;;2.92;1.70;;;;;;;21.46;48.92;100782.91;4985827;28;20082;-77
2023/07/07 06:37:21;;;;;;;2.67;1.55;;;;;;;21.57;47.89;100750.47;4980596;28;20053;-78
2023/07/07 06:39:48;;;;;;;2.85;1.50;;;;;;;22.15;45.92;100797.47;4983498;28;20077;-79
2023/07/07 06:42:15;;;;;;;3.97;2.53;;;;;;;22.42;46.45;100758.22;4985497;28;20092;-78
2023/07/07 06:44:41;;;;;;;3.78;1.65;;;;;;;22.48;43.38;100731.53;4983538;28;20136;-77
2023/07/07 06:47:16;;;;;;;2.53;1.60;;;;;;;22.98;43.73;100764.66;4999309;28;20052;-77
2023/07/07 06:49:43;;;;;;;5.63;1.83;;;;;;;23.05;42.20;100781.16;4986178;28;20046;-77
2023/07/07 06:52:10;;;;;;;6.18;2.38;;;;;;;23.11;44.09;100782.47;4988255;28;20073;-76
2023/07/07 06:54:37;;;;;;;4.70;1.70;;;;;;;23.37;42.39;100803.31;5003150;28;20533;-77
2023/07/07 06:57:04;;;;;;;2.78;1.70;;;;;;;23.67;42.39;100798.75;4986305;28;20045;-78
2023/07/07 06:59:31;;;;;;;2.95;1.90;;;;;;;23.92;42.20;100803.53;5006650;28;20141;-77
2023/07/07 07:01:57;;;;;;;3.35;1.70;;;;;;;24.00;40.13;100806.31;5010537;28;20129;-79
2023/07/07 07:04:24;;;;;;;2.15;1.60;;;;;;;23.99;40.80;100803.75;4984917;28;20057;-78
2023/07/07 07:06:51;;;;;;;4.15;1.65;;;;;;;24.01;41.48;100797.22;5007789;28;20076;-78
2023/07/07 07:09:17;;;;;;;3.40;1.50;;;;;;;24.11;40.25;100803.41;4999895;28;20030;-78
2023/07/07 07:11:44;;;;;;;3.38;1.67;;;;;;;23.96;39.67;100780.56;5003155;28;20102;-78
2023/07/07 07:14:14;;;;;;;2.58;1.60;;;;;;;24.12;40.06;100797.00;5006350;28;20060;-76
2023/07/07 07:16:41;;;;;;;2.38;1.80;;;;;;;24.21;42.03;100791.72;5010293;28;20054;-78
2023/07/07 07:19:07;;;;;;;3.53;1.42;;;;;;;24.34;41.63;100798.50;4992609;28;20129;-76
2023/07/07 07:21:34;;;;;;;2.92;1.70;;;;;;;24.33;40.14;100795.94;5010084;28;20042;-76
2023/07/07 07:24:01;;;;;;;2.63;1.67;;;;;;;24.25;41.84;100783.16;4995036;28;20056;-78
2023/07/07 07:26:27;;;;;;;3.50;1.58;;;;;;;24.42;41.32;100795.03;5005700;28;20054;-78
2023/07/07 07:28:54;;;;;;;2.25;1.50;;;;;;;24.55;41.15;100779.31;4983709;28;20609;-79
2023/07/07 07:31:21;;;;;;;4.40;1.52;;;;;;;24.98;39.38;100797.53;5006190;28;20511;-76
2023/07/07 07:33:51;;;;;;;3.30;1.67;;;;;;;25.27;38.66;100763.91;4992509;28;20060;-79
2023/07/07 07:36:19;;;;;;;4.00;1.80;;;;;;;25.61;38.43;100766.69;5005210;28;20581;-77
2023/07/07 07:38:45;;;;;;;4.55;1.70;;;;;;;25.97;36.97;100781.84;5004825;28;20053;-78
2023/07/07 07:41:13;;;;;;;3.08;1.58;;;;;;;26.11;37.33;100786.66;4999246;28;20050;-77
2023/07/07 07:43:40;;;;;;;3.67;1.55;;;;;;;26.10;36.50;100768.69;5007064;28;20038;-78
2023/07/07 07:46:06;;;;;;;2.47;1.60;;;;;;;26.09;37.76;100782.41;4987223;28;20073;-77
2023/07/07 07:48:33;;;;;;;4.55;1.75;;;;;;;26.12;36.98;100788.38;4989013;28;20052;-77
2023/07/07 07:50:59;;;;;;;3.38;1.55;;;;;;;25.71;37.72;100762.88;4991747;28;20062;-79
2023/07/07 07:53:26;;;;;;;3.00;1.73;;;;;;;25.85;38.14;100781.25;5021764;28;20061;-79
2023/07/07 07:55:53;;;;;;;2.92;1.50;;;;;;;25.70;38.08;100787.44;4996719;28;20048;-78
2023/07/07 07:58:20;;;;;;;3.72;1.70;;;;;;;25.73;38.24;100798.81;5005286;28;20058;-79
2023/07/07 08:00:46;;;;;;;3.15;1.63;;;;;;;25.92;38.67;100754.34;4992629;28;20459;-79
2023/07/07 08:03:13;;;;;;;4.65;1.60;;;;;;;26.57;37.11;100797.22;4995555;28;20129;-77
2023/07/07 08:05:40;;;;;;;2.90;1.73;;;;;;;26.98;36.04;100792.72;4991171;28;20046;-78
2023/07/07 08:08:07;;;;;;;1.63;1.40;;;;;;;27.01;36.02;100747.03;4980405;28;20057;-76
2023/07/07 08:10:34;;;;;;;2.40;1.45;;;;;;;27.23;35.66;100761.81;4987042;28;20049;-76
2023/07/07 08:13:01;;;;;;;2.55;1.52;;;;;;;27.36;35.99;100783.91;5007014;28;20041;-78
2023/07/07 08:15:30;;;;;;;2.58;1.70;;;;;;;27.44;35.47;100781.16;4994561;28;20066;-75
2023/07/07 08:17:57;;;;;;;3.88;1.55;;;;;;;27.57;35.57;100786.94;4983896;28;20050;-77
2023/07/07 08:20:24;;;;;;;4.97;2.38;;;;;;;27.46;35.75;100781.84;5007734;28;20046;-76
2023/07/07 08:22:51;;;;;;;3.08;1.67;;;;;;;27.30;35.79;100779.13;4993141;28;21008;-76
2023/07/07 08:25:18;;;;;;;2.55;1.63;;;;;;;27.40;33.92;100784.38;4992095;28;20054;-77
2023/07/07 08:27:45;;;;;;;2.75;1.80;;;;;;;27.49;33.36;100783.38;4982527;28;20050;-76
2023/07/07 08:30:15;;;;;;;1.63;1.52;;;;;;;27.45;34.39;100742.06;4998437;28;20416;-78
2023/07/07 08:32:41;;;;;;;5.32;1.90;;;;;;;27.90;33.63;100754.22;4981203;28;20062;-75
2023/07/07 08:35:10;;;;;;;5.18;1.77;;;;;;;28.14;32.92;100745.97;4985734;28;20042;-79
2023/07/07 08:37:37;;;;;;;4.15;1.63;;;;;;;28.57;33.09;100774.53;4998222;28;20049;-77
2023/07/07 08:40:04;;;;;;;3.80;1.85;;;;;;;28.54;32.32;100758.53;4979158;28;20042;-77
2023/07/07 08:42:34;;;;;;;3.75;1.83;;;;;;;28.59;31.43;100772.47;4984467;28;20137;-77
2023/07/07 08:45:05;;;;;;;3.70;1.95;;;;;;;28.26;31.41;100727.38;4984916;28;20052;-76
2023/07/07 08:47:53;;;;;;;4.30;1.65;;;;;;;28.58;31.14;100786.28;4986020;28;20556;-76
2023/07/07 08:50:36;;;;;;;2.92;1.80;;;;;;;28.54;31.73;100783.06;4999255;28;20145;-76
2023/07/07 08:53:30;;;;;;;3.65;1.95;;;;;;;28.52;30.84;100770.63;4979231;28;20046;-77
2023/07/07 08:56:12;;;;;;;3.50;1.60;;;;;;;28.43;31.10;100782.63;5000159;28;20054;-76
2023/07/07 08:59:01;;;;;;;2.13;1.85;;;;;;;28.13;31.51;100778.81;4980201;28;20047;-80
2023/07/07 09:01:45;;;;;;;2.17;1.73;;;;;;;27.83;32.42;100750.50;5004059;28;20054;-76
2023/07/07 09:04:33;;;;;;;5.68;2.22;;;;;;;28.12;31.17;100782.56;4989212;28;20052;-77
2023/07/07 09:07:08;;;;;;;4.25;2.03;;;;;;;28.30;30.96;100772.31;4992742;28;20049;-79
2023/07/07 09:09:43;;;;;;;2.70;1.67;;;;;;;28.52;29.93;100774.22;4983789;28;20042;-78
2023/07/07 09:12:33;;;;;;;2.55;1.70;;;;;;;28.61;30.35;100775.88;4984233;28;20060;-80
2023/07/07 09:15:01;;;;;;;;;;;;;;;28.83;29.37;100779.66;4991225;28;20112;-77
2023/07/07 09:17:33;;;;;;;2.50;1.52;;;;;;;28.74;29.33;100758.06;4988001;28;20404;-76
2023/07/07 09:20:04;;;;;;;3.05;1.73;;;;;;;28.70;29.21;100770.38;4981917;28;20320;-77
2023/07/07 09:22:47;;;;;;;2.83;1.80;;;;;;;28.51;29.59;100777.09;5003986;28;20057;-76
2023/07/07 09:25:37;;;;;;;6.35;2.10;;;;;;;28.27;30.35;100767.22;5005822;28;20065;-78
2023/07/07 09:28:17;;;;;;;2.92;1.65;;;;;;;28.09;30.03;100763.84;4987469;28;20061;-77
2023/07/07 09:30:52;;;;;;;2.03;1.83;;;;;;;27.85;29.37;100746.59;4983784;28;20054;-77
2023/07/07 09:33:22;;;;;;;3.38;2.20;;;;;;;27.82;29.39;100746.94;4991345;28;20628;-77
2023/07/07 09:35:59;;;;;;;3.00;2.13;;;;;;;27.62;29.92;100736.63;4985690;28;20045;-77
2023/07/07 09:38:45;;;;;;;2.85;1.90;;;;;;;27.65;30.91;100758.91;4997823;28;20042;-77
2023/07/07 09:41:43;;;;;;;4.93;2.10;;;;;;;27.52;31.00;100759.41;4989284;28;20052;-77
2023/07/07 09:44:23;;;;;;;3.97;2.30;;;;;;;27.35;30.54;100741.41;4987826;28;20137;-77
2023/07/07 09:47:12;;;;;;;3.63;2.05;;;;;;;27.41;30.23;100737.97;4987956;28;20050;-77
2023/07/07 09:49:51;;;;;;;3.05;1.90;;;;;;;27.47;30.45;100755.50;4984776;28;20065;-77
2023/07/07 09:52:41;;;;;;;2.70;2.03;;;;;;;27.32;30.63;100721.88;5013182;28;20060;-78
2023/07/07 09:55:22;;;;;;;;;;;;;;;27.53;29.91;100752.09;5001117;28;20046;-77
2023/07/07 09:58:11;;;;;;;3.42;2.30;;;;;;;27.49;29.88;100748.00;4988464;28;20205;-77
2023/07/07 10:00:39;;;;;;;3.53;1.92;;;;;;;27.48;30.18;100744.44;4985381;28;20137;-77
2023/07/07 10:03:40;;;;;;;3.15;2.28;;;;;;;27.41;30.04;100732.53;4989005;28;20046;-78
2023/07/07 10:06:32;;;;;;;4.70;2.17;;;;;;;27.38;30.30;100703.00;4984909;28;20546;-77
2023/07/07 10:09:00;;;;;;;3.50;2.47;;;;;;;27.79;30.46;100751.88;4980365;28;20101;-77
2023/07/07 10:11:34;;;;;;;3.42;2.00;;;;;;;27.81;30.29;100723.47;4990361;28;20046;-78
2023/07/07 10:14:21;;;;;;;3.17;2.20;;;;;;;27.91;29.44;100729.53;5008533;28;20057;-77
2023/07/07 10:17:07;;;;;;;6.20;2.55;;;;;;;27.86;30.19;100736.56;5009561;28;20080;-77
2023/07/07 10:20:05;;;;;;;5.63;2.53;;;;;;;27.87;30.04;100722.75;5018452;28;20061;-77
2023/07/07 10:22:35;;;;;;;3.45;2.40;;;;;;;28.01;29.75;100721.19;5023606;28;20046;-77
2023/07/07 10:25:05;;;;;;;6.67;2.63;;;;;;;27.96;30.05;100707.25;5007600;28;20038;-77
2023/07/07 10:27:32;;;;;;;5.25;2.60;;;;;;;28.17;30.29;100723.84;4990981;28;20451;-77
2023/07/07 10:30:04;;;;;;;4.32;2.30;;;;;;;28.25;30.23;100701.16;4978409;28;20053;-76
2023/07/07 10:32:31;;;;;;;4.70;2.88;;;;;;;28.41;29.69;100720.16;4987642;28;20054;-77
2023/07/07 10:35:00;;;;;;;7.53;2.92;;;;;;;28.44;29.46;100718.94;4991052;28;20553;-77
2023/07/07 10:37:36;;;;;;;5.55;2.63;;;;;;;28.42;29.45;100726.44;5007502;28;20075;-76
2023/07/07 10:40:04;;;;;;;5.55;2.92;;;;;;;28.32;29.72;100710.34;5002302;28;20159;-78
2023/07/07 10:42:32;;;;;;;3.70;2.53;;;;;;;28.37;29.57;100710.63;4983244;28;20116;-78
2023/07/07 10:45:02;;;;;;;5.60;2.85;;;;;;;28.36;29.61;100689.88;4998245;28;20038;-76
2023/07/07 10:47:34;;;;;;;6.10;2.78;;;;;;;28.56;29.18;100721.06;5000906;28;20053;-77
2023/07/07 10:50:03;;;;;;;3.60;2.58;;;;;;;28.43;28.95;100684.56;4998023;28;20046;-77
2023/07/07 10:53:05;;;;;;;5.78;2.90;;;;;;;28.68;28.71;100705.13;5000247;28;20096;-77
2023/07/07 10:55:53;;;;;;;4.82;2.92;;;;;;;28.69;28.92;100716.88;4975589;28;20050;-75
2023/07/07 10:58:34;;;;;;;3.58;2.67;;;;;;;28.38;29.16;100659.72;5005092;28;20129;-78
2023/07/07 11:01:25;;;;;;;8.30;3.22;;;;;;;28.70;29.40;100700.34;4976314;28;20140;-79
2023/07/07 11:04:31;;;;;;;4.55;2.90;;;;;;;28.61;29.95;100672.34;4982124;28;20060;-76
2023/07/07 11:07:33;;;;;;;5.47;2.67;;;;;;;29.04;29.00;100699.09;5000796;28;20498;-79
2023/07/07 11:10:16;;;;;;;5.50;3.13;;;;;;;29.09;29.59;100683.03;4992751;28;20458;-77
2023/07/07 11:13:02;;;;;;;6.72;3.60;;;;;;;29.11;28.38;100687.28;4986338;28;20165;-78
2023/07/07 11:15:48;;;;;;;4.43;3.28;;;;;;;29.15;29.23;100680.38;4979357;28;20049;-77
2023/07/07 11:18:38;;;;;;;6.43;3.90;;;;;;;29.19;28.71;100667.25;4996787;28;20081;-78
2023/07/07 11:21:21;;;;;;;4.80;3.38;;;;;;;28.79;28.85;100614.81;4979191;28;20203;-79
2023/07/07 11:24:05;;;;;;;4.70;3.50;;;;;;;29.09;28.93;100669.41;5008404;28;20054;-78
2023/07/07 11:27:06;;;;;;;6.35;3.80;;;;;;;29.26;28.21;100670.94;4986011;28;20049;-79
2023/07/07 11:30:00;;;;;;;4.85;3.17;;;;;;;29.38;27.81;100674.88;4982776;28;20558;-76
2023/07/07 11:32:43;;;;;;;5.65;3.67;;;;;;;29.48;27.90;100664.56;4974910;28;20042;-79
2023/07/07 11:35:28;;;;;;;9.85;4.05;;;;;;;29.57;28.05;100663.44;5004305;28;20449;-77
2023/07/07 11:38:19;;;;;;;4.80;3.33;;;;;;;29.70;27.40;100660.03;5003234;28;20054;-79
2023/07/07 11:40:58;;;;;;;4.97;3.78;;;;;;;29.75;26.95;100660.31;4976903;28;20076;-78
2023/07/07 11:44:20;;;;;;;6.32;3.95;;;;;;;29.88;26.81;100654.19;5004040;28;20510;-77
2023/07/07 11:47:15;;;;;;;10.02;4.30;;;;;;;30.11;26.24;100654.91;4947698;28;20068;-79
2023/07/07 11:50:03;;;;;;;6.97;4.25;;;;;;;30.03;25.49;100630.47;4986396;28;20047;-77
2023/07/07 11:52:57;;;;;;;5.80;4.55;;;;;;;30.00;25.85;100614.44;4986154;28;20090;-76
2023/07/07 11:55:39;;;;;;;5.75;4.25;;;;;;;30.17;26.42;100640.50;4989266;28;20148;-78